Time;durP1;ratioP1;P1;durP2;ratioP2;P2;SDS_P1;SDS_P2;PMS_P1;PMS_P2;Temp;Humidity;BMP_temperature;BMP_pressure;BME280_temperature;BME280_humidity;BME280_pressure;Samples;Min_cycle;Max_cycle;Signal;HPM_P1;HPM_P2
2021/12/30 00:01:10;;;;;;;1.90;0.40;;;13.00;99.90;;;;;;4879697;29;20447;-74
2021/12/30 00:03:36;;;;;;;0.60;0.47;;;13.00;99.90;;;;;;4879860;29;20424;-74
2021/12/30 00:06:02;;;;;;;0.40;0.40;;;13.00;99.90;;;;;;4879738;29;20475;-74
2021/12/30 00:08:28;;;;;;;0.40;0.40;;;13.00;99.90;;;;;;4879767;29;20184;-74
2021/12/30 00:10:54;;;;;;;0.60;0.40;;;13.00;99.90;;;;;;4879576;29;20422;-74
2021/12/30 00:13:20;;;;;;;1.17;0.50;;;13.00;99.90;;;;;;4879540;29;20191;-74
2021/12/30 00:15:46;;;;;;;2.20;0.40;;;12.90;99.90;;;;;;4879684;29;20344;-74
2021/12/30 00:18:12;;;;;;;0.90;0.80;;;12.90;99.90;;;;;;4879615;29;20933;-74
2021/12/30 00:20:37;;;;;;;0.80;0.67;;;12.90;99.90;;;;;;4879478;29;20286;-74
2021/12/30 00:23:05;;;;;;;0.67;0.40;;;12.90;99.90;;;;;;4879217;29;20657;-74
2021/12/30 00:25:38;;;;;;;1.00;0.60;;;13.00;99.90;;;;;;4879505;29;20180;-74
2021/12/30 00:28:05;;;;;;;0.80;0.60;;;13.00;99.90;;;;;;4879443;29;20436;-74
2021/12/30 00:30:31;;;;;;;3.03;1.53;;;13.00;99.90;;;;;;4879328;29;20463;-74
2021/12/30 00:32:56;;;;;;;1.10;0.80;;;13.00;99.90;;;;;;4879151;29;20579;-74
2021/12/30 00:35:22;;;;;;;4.63;0.60;;;13.00;99.90;;;;;;4879143;29;20210;-74
2021/12/30 00:37:47;;;;;;;1.27;0.50;;;13.00;99.90;;;;;;4878436;29;20183;-74
2021/12/30 00:40:13;;;;;;;2.30;0.60;;;13.00;99.90;;;;;;4879016;29;20238;-74
2021/12/30 00:42:39;;;;;;;0.80;0.67;;;13.00;99.90;;;;;;4879110;29;20203;-74
2021/12/30 00:45:05;;;;;;;1.40;0.50;;;13.00;99.90;;;;;;4878884;29;20683;-74
2021/12/30 00:47:30;;;;;;;2.53;0.70;;;13.00;99.90;;;;;;4879121;29;20268;-74
2021/12/30 00:49:56;;;;;;;0.90;0.60;;;13.00;99.90;;;;;;4878967;29;20993;-74
2021/12/30 00:52:23;;;;;;;1.20;0.60;;;13.00;99.90;;;;;;4878704;29;20673;-74
2021/12/30 00:54:49;;;;;;;2.57;0.60;;;12.90;99.90;;;;;;4878749;29;20542;-74
2021/12/30 00:57:15;;;;;;;1.67;0.60;;;12.90;99.90;;;;;;4878875;29;20515;-74
2021/12/30 00:59:41;;;;;;;0.60;0.60;;;12.90;99.90;;;;;;4877636;29;20186;-74
2021/12/30 05:31:17;;;;;;;0.70;0.47;;;12.70;99.90;;;;;;5606443;23;20590;-75
2021/12/30 05:33:43;;;;;;;0.50;0.40;;;12.80;99.90;;;;;;4893650;29;20986;-74
2021/12/30 05:36:08;;;;;;;0.40;0.37;;;12.70;99.90;;;;;;4888396;29;20714;-75
2021/12/30 05:38:34;;;;;;;1.20;0.40;;;12.70;99.90;;;;;;4897103;29;20671;-75
2021/12/30 05:40:59;;;;;;;0.43;0.30;;;12.70;99.90;;;;;;4896722;29;20205;-74
2021/12/30 05:43:25;;;;;;;0.60;0.47;;;12.70;99.90;;;;;;4896625;29;20179;-74
2021/12/30 05:45:50;;;;;;;0.40;0.40;;;12.70;99.90;;;;;;4896594;29;20187;-75
2021/12/30 05:48:16;;;;;;;0.30;0.30;;;12.70;99.90;;;;;;4896729;29;20706;-75
2021/12/30 05:50:42;;;;;;;0.50;0.40;;;12.80;99.90;;;;;;4881305;29;20684;-75
2021/12/30 05:53:07;;;;;;;0.50;0.40;;;12.80;99.90;;;;;;4877621;29;20191;-74
2021/12/30 05:55:33;;;;;;;0.30;0.30;;;12.80;99.90;;;;;;4877378;29;20209;-75
2021/12/30 05:57:59;;;;;;;8.30;0.50;;;12.80;99.90;;;;;;4877816;29;20542;-75
2021/12/30 06:00:27;;;;;;;0.90;0.40;;;12.90;99.90;;;;;;4877607;29;20645;-75
2021/12/30 06:02:52;;;;;;;0.40;0.30;;;12.90;99.90;;;;;;4877345;29;20790;-74
2021/12/30 06:05:18;;;;;;;5.83;4.97;;;12.80;99.90;;;;;;4877743;29;20420;-75
2021/12/30 06:07:45;;;;;;;1.40;1.30;;;12.80;99.90;;;;;;4877880;29;20186;-74
2021/12/30 06:10:12;;;;;;;0.60;0.43;;;12.80;99.90;;;;;;4877808;29;20259;-75
2021/12/30 06:12:38;;;;;;;0.40;0.37;;;12.80;99.90;;;;;;4876256;29;20476;-73
2021/12/30 06:15:04;;;;;;;2.93;0.40;;;12.80;99.90;;;;;;4877522;29;20458;-73
2021/12/30 06:17:30;;;;;;;0.47;0.30;;;12.80;99.90;;;;;;4876382;29;20434;-74
2021/12/30 06:19:56;;;;;;;0.63;0.40;;;12.80;99.90;;;;;;4877621;29;20499;-75
2021/12/30 06:22:22;;;;;;;0.80;0.50;;;12.90;99.90;;;;;;4877666;29;20290;-73
2021/12/30 06:24:47;;;;;;;0.40;0.30;;;12.80;99.90;;;;;;4877567;29;20495;-73
2021/12/30 06:27:13;;;;;;;0.63;0.30;;;12.90;99.90;;;;;;4877600;29;20186;-74
2021/12/30 06:29:39;;;;;;;0.40;0.30;;;12.80;99.90;;;;;;4877699;29;20208;-74
2021/12/30 06:32:05;;;;;;;0.30;0.30;;;12.80;99.90;;;;;;4877344;29;20302;-74
2021/12/30 06:34:31;;;;;;;1.27;0.37;;;12.80;99.90;;;;;;4875433;29;20184;-74
2021/12/30 06:36:57;;;;;;;0.30;0.30;;;12.80;99.90;;;;;;4880454;29;20427;-73
2021/12/30 06:39:22;;;;;;;0.30;0.30;;;12.80;99.90;;;;;;4880144;29;20171;-74
2021/12/30 06:41:48;;;;;;;1.33;0.30;;;12.80;99.90;;;;;;4881156;29;20202;-73
2021/12/30 06:44:13;;;;;;;0.40;0.40;;;12.80;99.90;;;;;;4881083;29;20790;-74
2021/12/30 06:46:39;;;;;;;3.13;0.40;;;12.80;99.90;;;;;;4881317;29;20183;-74
2021/12/30 06:49:08;;;;;;;0.50;0.40;;;12.70;99.90;;;;;;4881259;29;20176;-74
2021/12/30 06:51:35;;;;;;;0.80;0.80;;;12.80;99.90;;;;;;4881030;29;20195;-74
2021/12/30 06:54:05;;;;;;;0.40;0.40;;;12.80;99.90;;;;;;4881064;29;20423;-75
2021/12/30 06:56:31;;;;;;;0.40;0.30;;;12.70;99.90;;;;;;4880879;29;20852;-74
2021/12/30 06:58:56;;;;;;;0.30;0.30;;;12.70;99.90;;;;;;4881034;29;20396;-74
2021/12/30 07:01:22;;;;;;;0.40;0.30;;;12.70;99.90;;;;;;4879609;29;20921;-75
2021/12/30 07:03:48;;;;;;;0.53;0.30;;;12.70;99.90;;;;;;4879617;29;20186;-75
2021/12/30 07:06:13;;;;;;;0.40;0.30;;;12.70;99.90;;;;;;4880907;29;20176;-74
2021/12/30 07:08:39;;;;;;;0.90;0.30;;;12.70;99.90;;;;;;4880937;29;20214;-74
2021/12/30 07:11:05;;;;;;;0.40;0.40;;;12.70;99.90;;;;;;4880744;29;20727;-74
2021/12/30 07:13:31;;;;;;;0.40;0.40;;;12.70;99.90;;;;;;4880366;29;20529;-73
2021/12/30 07:15:57;;;;;;;0.40;0.33;;;12.70;99.90;;;;;;4880617;29;20237;-74
2021/12/30 07:18:22;;;;;;;0.40;0.40;;;12.70;99.90;;;;;;4880399;29;20177;-75
2021/12/30 07:20:48;;;;;;;0.40;0.30;;;12.70;99.90;;;;;;4880124;29;20792;-73
2021/12/30 07:23:14;;;;;;;4.50;0.33;;;12.70;99.90;;;;;;4880266;29;20263;-75
2021/12/30 07:25:39;;;;;;;0.40;0.40;;;12.70;99.90;;;;;;4880755;29;20199;-75
2021/12/30 07:28:06;;;;;;;0.40;0.40;;;12.70;99.90;;;;;;4880505;29;20191;-75
2021/12/30 07:30:32;;;;;;;0.40;0.33;;;12.70;99.90;;;;;;4878867;29;20194;-76
2021/12/30 07:32:57;;;;;;;0.50;0.30;;;12.70;99.90;;;;;;4880328;29;20431;-75
2021/12/30 07:35:25;;;;;;;0.40;0.40;;;12.70;99.90;;;;;;4880198;29;20207;-76
2021/12/30 07:37:51;;;;;;;0.40;0.30;;;12.70;99.90;;;;;;4880498;29;20176;-75
2021/12/30 07:40:17;;;;;;;0.40;0.30;;;12.70;99.90;;;;;;4880884;29;20505;-73
2021/12/30 07:42:43;;;;;;;2.00;0.40;;;12.70;99.90;;;;;;4878870;29;20238;-73
2021/12/30 07:45:10;;;;;;;1.90;0.40;;;12.80;99.90;;;;;;4880267;29;20507;-76
2021/12/30 07:47:37;;;;;;;0.40;0.30;;;12.80;99.90;;;;;;4879534;29;20421;-74
2021/12/30 07:50:04;;;;;;;0.70;0.30;;;12.80;99.90;;;;;;4880050;29;20212;-76
2021/12/30 07:52:30;;;;;;;0.40;0.40;;;12.80;99.90;;;;;;4879929;29;20436;-76
2021/12/30 07:54:55;;;;;;;0.40;0.40;;;12.80;99.90;;;;;;4879799;29;20959;-75
2021/12/30 07:57:22;;;;;;;2.23;0.60;;;12.90;99.90;;;;;;4879949;29;20193;-75
2021/12/30 07:59:49;;;;;;;0.40;0.40;;;12.80;99.90;;;;;;4878916;29;20599;-75
2021/12/30 08:02:14;;;;;;;1.37;0.40;;;12.80;99.90;;;;;;4879224;29;20443;-75
2021/12/30 08:04:40;;;;;;;0.90;0.50;;;12.90;99.90;;;;;;4879651;29;20472;-76
2021/12/30 08:07:06;;;;;;;0.97;0.50;;;12.90;99.90;;;;;;4879746;29;20258;-76
2021/12/30 08:09:32;;;;;;;0.40;0.40;;;12.90;99.90;;;;;;4879687;29;20262;-76
2021/12/30 08:11:59;;;;;;;0.90;0.30;;;12.90;99.90;;;;;;4878230;29;20889;-79
2021/12/30 08:14:25;;;;;;;0.40;0.30;;;13.00;99.90;;;;;;4875109;29;20201;-74
2021/12/30 08:16:51;;;;;;;0.40;0.33;;;13.00;99.90;;;;;;4876164;29;20945;-72
2021/12/30 08:19:16;;;;;;;0.50;0.30;;;13.00;99.90;;;;;;4879536;29;20259;-75
2021/12/30 08:21:42;;;;;;;0.40;0.40;;;13.10;99.90;;;;;;4880409;29;20673;-73
2021/12/30 08:24:09;;;;;;;3.40;0.60;;;13.10;99.90;;;;;;4878589;29;20179;-78
2021/12/30 08:26:35;;;;;;;0.50;0.30;;;13.10;99.90;;;;;;4879334;29;20463;-71
2021/12/30 08:29:00;;;;;;;0.40;0.40;;;13.20;99.90;;;;;;4879059;29;20412;-74
2021/12/30 08:31:26;;;;;;;0.60;0.40;;;13.20;99.90;;;;;;4878362;29;20462;-73
2021/12/30 08:33:52;;;;;;;0.90;0.40;;;13.20;99.90;;;;;;4879562;29;20191;-75
2021/12/30 08:36:17;;;;;;;1.03;0.33;;;13.20;99.90;;;;;;4879103;29;20214;-77
2021/12/30 08:38:43;;;;;;;1.53;0.40;;;13.20;99.90;;;;;;4879169;29;20187;-74
2021/12/30 08:41:09;;;;;;;1.27;0.50;;;13.30;99.90;;;;;;4878745;29;20218;-74
2021/12/30 08:43:34;;;;;;;0.40;0.30;;;13.30;99.90;;;;;;4878656;29;20186;-73
2021/12/30 08:46:00;;;;;;;0.40;0.30;;;13.30;99.90;;;;;;4879206;29;20420;-73
2021/12/30 08:48:26;;;;;;;0.43;0.40;;;13.30;99.90;;;;;;4874355;29;20199;-75
2021/12/30 08:50:51;;;;;;;0.40;0.40;;;13.30;99.90;;;;;;4859139;29;20199;-74
2021/12/30 08:53:17;;;;;;;1.80;0.50;;;13.30;99.90;;;;;;4876963;29;20194;-79
2021/12/30 08:55:43;;;;;;;0.40;0.30;;;13.40;99.90;;;;;;4871397;29;20237;-77
2021/12/30 08:58:09;;;;;;;0.33;0.30;;;13.40;99.90;;;;;;4863507;29;20590;-77
2021/12/30 09:00:38;;;;;;;0.40;0.30;;;13.50;99.90;;;;;;4874096;29;20540;-74
2021/12/30 09:03:05;;;;;;;0.53;0.53;;;13.60;99.90;;;;;;4866473;29;20235;-78
2021/12/30 09:05:35;;;;;;;0.83;0.50;;;13.70;99.90;;;;;;4872041;29;20904;-77
2021/12/30 09:08:01;;;;;;;0.40;0.33;;;13.80;99.90;;;;;;4878775;29;20440;-76
2021/12/30 09:10:27;;;;;;;0.60;0.40;;;13.90;99.90;;;;;;4877580;29;20447;-75
2021/12/30 09:12:54;;;;;;;0.97;0.40;;;14.00;99.90;;;;;;4875251;29;20787;-75
2021/12/30 09:15:23;;;;;;;0.60;0.40;;;14.10;99.90;;;;;;4877971;29;20559;-76
2021/12/30 09:17:51;;;;;;;0.40;0.40;;;14.30;99.90;;;;;;4879836;29;20555;-78
2021/12/30 09:20:18;;;;;;;1.33;0.40;;;14.40;99.90;;;;;;4864636;29;20459;-73
2021/12/30 09:22:44;;;;;;;0.40;0.40;;;14.50;99.90;;;;;;4878104;29;20478;-71
2021/12/30 09:25:11;;;;;;;0.70;0.70;;;14.70;99.90;;;;;;4878176;29;20869;-76
2021/12/30 09:27:38;;;;;;;3.80;0.50;;;15.10;99.90;;;;;;4878120;29;20428;-74
2021/12/30 09:30:07;;;;;;;0.80;0.63;;;15.40;99.90;;;;;;4878296;29;20419;-75
2021/12/30 09:32:32;;;;;;;0.40;0.40;;;15.90;99.90;;;;;;4877806;29;20826;-73
2021/12/30 09:34:59;;;;;;;3.03;0.40;;;16.30;99.90;;;;;;4878211;29;20488;-72
2021/12/30 09:37:25;;;;;;;1.43;0.30;;;16.70;99.90;;;;;;4878203;29;20968;-74
2021/12/30 09:39:51;;;;;;;2.00;0.40;;;16.70;99.90;;;;;;4878222;29;20687;-74
2021/12/30 09:42:18;;;;;;;0.50;0.43;;;16.50;99.90;;;;;;4877957;29;20203;-74
2021/12/30 09:44:44;;;;;;;0.60;0.40;;;16.30;99.90;;;;;;4878052;29;20423;-77
2021/12/30 09:47:10;;;;;;;0.40;0.40;;;16.20;99.90;;;;;;4877996;29;20933;-73
2021/12/30 09:49:35;;;;;;;0.60;0.43;;;16.10;99.90;;;;;;4878201;29;20452;-75
2021/12/30 09:52:01;;;;;;;0.50;0.40;;;16.20;99.90;;;;;;4873630;29;20287;-75
2021/12/30 09:54:27;;;;;;;0.70;0.40;;;16.10;99.90;;;;;;4869907;29;20736;-75
2021/12/30 09:56:53;;;;;;;0.53;0.43;;;16.10;99.90;;;;;;4889849;29;20975;-73
2021/12/30 09:59:23;;;;;;;0.40;0.30;;;16.20;99.90;;;;;;4880300;29;20195;-74
2021/12/30 10:01:48;;;;;;;0.40;0.30;;;16.10;99.90;;;;;;4877693;29;20456;-73
2021/12/30 10:04:14;;;;;;;0.43;0.40;;;16.20;99.90;;;;;;4877812;29;20425;-74
2021/12/30 10:06:48;;;;;;;0.40;0.30;;;16.30;99.90;;;;;;4877871;29;20560;-72
2021/12/30 10:09:16;;;;;;;0.40;0.30;;;16.40;99.90;;;;;;4877648;29;20183;-73
2021/12/30 10:11:49;;;;;;;0.40;0.37;;;16.50;99.90;;;;;;4877667;29;20815;-73
2021/12/30 10:14:52;;;;;;;0.70;0.40;;;16.40;99.90;;;;;;4876472;29;20469;-74
2021/12/30 10:17:28;;;;;;;0.40;0.30;;;16.30;99.90;;;;;;4871085;29;20438;-74
2021/12/30 10:20:13;;;;;;;0.53;0.50;;;16.30;99.90;;;;;;4877872;29;20411;-75
2021/12/30 10:22:38;;;;;;;0.50;0.40;;;16.30;99.90;;;;;;4877614;29;20446;-73
2021/12/30 10:25:04;;;;;;;2.00;0.40;;;16.50;99.90;;;;;;4872651;29;20450;-74
2021/12/30 10:27:33;;;;;;;0.47;0.40;;;16.60;99.90;;;;;;4878205;29;20577;-74
2021/12/30 10:29:59;;;;;;;3.07;0.50;;;16.60;99.90;;;;;;4877522;29;20420;-74
2021/12/30 10:32:28;;;;;;;0.50;0.50;;;16.80;99.90;;;;;;4877147;29;20470;-74
2021/12/30 10:35:04;;;;;;;0.50;0.40;;;17.00;99.90;;;;;;4877483;29;20189;-74
2021/12/30 10:37:30;;;;;;;3.90;0.60;;;17.30;99.90;;;;;;4877308;29;20536;-74
2021/12/30 10:39:56;;;;;;;0.40;0.30;;;17.40;99.90;;;;;;4877562;29;20499;-72
2021/12/30 10:42:22;;;;;;;0.47;0.40;;;17.70;99.90;;;;;;4877284;29;20562;-73
2021/12/30 10:44:56;;;;;;;0.50;0.50;;;17.90;99.90;;;;;;4877448;29;20201;-73
2021/12/30 10:47:26;;;;;;;0.50;0.50;;;17.60;99.90;;;;;;4877487;29;20238;-73
2021/12/30 10:50:05;;;;;;;0.60;0.40;;;17.40;99.90;;;;;;4876908;29;20470;-74
2021/12/30 10:52:30;;;;;;;0.43;0.43;;;17.20;99.90;;;;;;4877430;29;20199;-74
2021/12/30 10:54:59;;;;;;;0.40;0.40;;;16.90;99.90;;;;;;4876093;29;20424;-74
2021/12/30 10:57:31;;;;;;;0.53;0.50;;;16.90;99.90;;;;;;4877634;29;21000;-75
2021/12/30 10:59:58;;;;;;;0.50;0.40;;;16.90;99.90;;;;;;4877452;29;20416;-74
2021/12/30 11:02:26;;;;;;;0.40;0.40;;;16.80;99.90;;;;;;4877109;29;20848;-74
2021/12/30 11:04:57;;;;;;;0.40;0.40;;;16.80;99.90;;;;;;4875982;29;20423;-74
2021/12/30 11:07:40;;;;;;;1.30;0.40;;;16.70;99.90;;;;;;4877220;29;20952;-75
2021/12/30 11:10:06;;;;;;;0.40;0.40;;;16.60;99.90;;;;;;4871434;29;21896;-74
2021/12/30 11:12:36;;;;;;;0.90;0.43;;;16.60;99.90;;;;;;4871452;29;20451;-71
2021/12/30 11:15:05;;;;;;;0.60;0.60;;;16.70;99.90;;;;;;4873842;29;20478;-74
2021/12/30 11:17:36;;;;;;;1.03;0.50;;;16.70;99.90;;;;;;4871685;29;20448;-73
2021/12/30 11:20:10;;;;;;;0.40;0.30;;;16.70;99.90;;;;;;4873862;29;20420;-74
2021/12/30 11:22:38;;;;;;;0.57;0.43;;;16.70;99.90;;;;;;4870151;29;21017;-73
2021/12/30 11:25:07;;;;;;;0.40;0.40;;;16.70;99.90;;;;;;4877117;29;20439;-74
2021/12/30 11:27:33;;;;;;;3.70;0.60;;;16.70;99.90;;;;;;4872231;29;20436;-74
2021/12/30 11:30:03;;;;;;;0.40;0.33;;;16.70;99.90;;;;;;4877084;29;20662;-73
2021/12/30 11:32:31;;;;;;;0.50;0.40;;;16.60;99.90;;;;;;4874632;29;20468;-74
2021/12/30 11:34:58;;;;;;;2.43;0.40;;;16.60;99.90;;;;;;4876981;29;20509;-74
2021/12/30 11:37:24;;;;;;;1.33;0.40;;;16.50;99.90;;;;;;4874508;29;20429;-74
2021/12/30 11:39:53;;;;;;;0.43;0.40;;;16.50;99.90;;;;;;4877052;29;20514;-74
2021/12/30 11:42:19;;;;;;;1.47;0.40;;;16.50;99.90;;;;;;4876709;29;20448;-74
2021/12/30 11:44:46;;;;;;;0.40;0.40;;;16.50;99.90;;;;;;4876656;29;20929;-73
2021/12/30 11:47:34;;;;;;;0.40;0.40;;;16.60;99.90;;;;;;4875933;29;20239;-74
2021/12/30 11:50:15;;;;;;;0.60;0.30;;;16.70;99.90;;;;;;4875541;29;20442;-73
2021/12/30 11:52:55;;;;;;;0.40;0.30;;;16.80;99.90;;;;;;4875673;29;20440;-73
2021/12/30 11:55:53;;;;;;;0.40;0.30;;;16.80;99.90;;;;;;4872969;29;20825;-74
2021/12/30 11:58:32;;;;;;;0.40;0.40;;;16.80;99.90;;;;;;4878551;29;20426;-74
2021/12/30 12:01:27;;;;;;;0.40;0.30;;;16.70;99.90;;;;;;4861992;29;20435;-74
2021/12/30 12:03:53;;;;;;;0.87;0.40;;;16.60;99.90;;;;;;4871009;29;20795;-73
2021/12/30 12:06:25;;;;;;;0.40;0.30;;;16.50;99.90;;;;;;4879846;29;20427;-74
2021/12/30 12:09:07;;;;;;;0.30;0.30;;;16.50;99.90;;;;;;4879773;29;20266;-73
2021/12/30 12:11:43;;;;;;;2.93;0.30;;;16.60;99.90;;;;;;4879364;29;20443;-73
2021/12/30 12:14:27;;;;;;;0.50;0.30;;;16.80;99.90;;;;;;4878771;29;20463;-74
2021/12/30 12:17:12;;;;;;;0.60;0.30;;;17.00;99.90;;;;;;4872024;29;20463;-73
2021/12/30 12:19:48;;;;;;;0.60;0.40;;;17.20;99.90;;;;;;4879768;29;20479;-74
2021/12/30 12:22:17;;;;;;;0.40;0.40;;;17.10;99.90;;;;;;4879339;29;20443;-74
2021/12/30 12:24:44;;;;;;;0.57;0.40;;;17.10;99.90;;;;;;4879690;29;20833;-74
2021/12/30 12:27:17;;;;;;;0.60;0.30;;;17.10;99.90;;;;;;4879749;29;20455;-73
2021/12/30 12:29:52;;;;;;;0.40;0.40;;;17.00;99.90;;;;;;4879611;29;20467;-74
2021/12/30 12:32:33;;;;;;;0.50;0.40;;;16.80;99.90;;;;;;4878864;29;20463;-74
2021/12/30 12:35:01;;;;;;;0.40;0.40;;;16.70;99.90;;;;;;4878563;29;20411;-73
2021/12/30 12:37:29;;;;;;;0.40;0.30;;;16.60;99.90;;;;;;4879051;29;20420;-74
2021/12/30 12:40:10;;;;;;;0.60;0.40;;;16.40;99.90;;;;;;4879288;29;20467;-73
2021/12/30 12:42:53;;;;;;;0.60;0.40;;;16.40;99.90;;;;;;4878940;29;20858;-72
2021/12/30 12:45:19;;;;;;;0.50;0.30;;;16.40;99.90;;;;;;4879157;29;20465;-74
2021/12/30 12:47:45;;;;;;;0.40;0.30;;;16.30;99.90;;;;;;4879137;29;20994;-73
2021/12/30 12:50:11;;;;;;;0.50;0.50;;;16.40;99.90;;;;;;4878784;29;20171;-73
2021/12/30 12:52:44;;;;;;;0.40;0.30;;;16.30;99.90;;;;;;4878743;29;20499;-74
2021/12/30 12:55:18;;;;;;;0.40;0.40;;;16.30;99.90;;;;;;4878780;29;20215;-73
2021/12/30 12:57:44;;;;;;;0.50;0.33;;;16.40;99.90;;;;;;4879492;29;20467;-74
2021/12/30 13:00:11;;;;;;;0.43;0.37;;;16.40;99.90;;;;;;4879535;29;20518;-74
2021/12/30 13:02:37;;;;;;;0.40;0.30;;;16.50;99.90;;;;;;4879015;29;20223;-73
2021/12/30 13:05:07;;;;;;;0.50;0.40;;;16.60;99.90;;;;;;4878719;29;20415;-73
2021/12/30 13:07:34;;;;;;;0.40;0.40;;;16.60;99.90;;;;;;4879011;29;20250;-74
2021/12/30 13:09:59;;;;;;;0.40;0.30;;;16.60;99.90;;;;;;4878474;29;20423;-73
2021/12/30 13:12:25;;;;;;;1.03;0.40;;;16.60;99.90;;;;;;4878773;29;20436;-73
2021/12/30 13:14:50;;;;;;;0.40;0.30;;;16.50;99.90;;;;;;4878598;29;20266;-73
2021/12/30 13:17:16;;;;;;;0.43;0.40;;;16.40;99.90;;;;;;4877494;29;20211;-73
2021/12/30 13:19:43;;;;;;;0.40;0.40;;;16.30;99.90;;;;;;4877419;29;20596;-72
2021/12/30 13:22:14;;;;;;;4.00;0.50;;;16.20;99.90;;;;;;4878225;29;20443;-74
2021/12/30 13:24:57;;;;;;;0.40;0.30;;;16.20;99.90;;;;;;4878177;29;20523;-73
2021/12/30 13:27:42;;;;;;;0.40;0.40;;;16.10;99.90;;;;;;4878471;29;20423;-74
2021/12/30 13:30:18;;;;;;;0.40;0.40;;;16.10;99.90;;;;;;4878554;29;20614;-74
2021/12/30 13:32:50;;;;;;;1.43;0.40;;;16.10;99.90;;;;;;4877870;29;20472;-72
2021/12/30 13:35:25;;;;;;;0.40;0.40;;;16.00;99.90;;;;;;4878302;29;20545;-75
2021/12/30 13:38:00;;;;;;;0.40;0.30;;;16.00;99.90;;;;;;4877919;29;20800;-75
2021/12/30 13:40:30;;;;;;;0.60;0.40;;;15.90;99.90;;;;;;4878084;29;20415;-74
2021/12/30 13:42:57;;;;;;;0.50;0.40;;;15.90;99.90;;;;;;4877621;29;20514;-74
2021/12/30 13:45:29;;;;;;;2.40;0.40;;;15.90;99.90;;;;;;4877942;29;20431;-74
2021/12/30 13:48:18;;;;;;;0.50;0.40;;;15.90;99.90;;;;;;4876733;29;20518;-73
2021/12/30 13:50:47;;;;;;;0.63;0.40;;;15.90;99.90;;;;;;4877744;29;20416;-73
2021/12/30 13:53:13;;;;;;;0.67;0.50;;;15.80;99.90;;;;;;4877870;29;20426;-74
2021/12/30 13:55:53;;;;;;;0.63;0.63;;;15.80;99.90;;;;;;4876671;29;20466;-74
2021/12/30 13:58:52;;;;;;;0.50;0.40;;;15.80;99.90;;;;;;4878022;29;20462;-74
2021/12/30 14:01:23;;;;;;;1.13;0.50;;;15.80;99.90;;;;;;4873900;29;20454;-74
2021/12/30 14:04:03;;;;;;;0.40;0.40;;;15.80;99.90;;;;;;4877814;29;20411;-73
2021/12/30 14:06:28;;;;;;;0.40;0.33;;;15.80;99.90;;;;;;4877976;29;20412;-74
2021/12/30 14:09:07;;;;;;;3.63;0.90;;;15.80;99.90;;;;;;4877795;29;20438;-74
2021/12/30 14:11:40;;;;;;;2.00;0.50;;;15.70;99.90;;;;;;4877639;29;20207;-72
2021/12/30 14:14:09;;;;;;;0.40;0.40;;;15.70;99.90;;;;;;4877674;29;20817;-75
2021/12/30 14:16:40;;;;;;;2.60;0.50;;;15.70;99.90;;;;;;4877560;29;20482;-74
2021/12/30 14:19:06;;;;;;;1.47;0.90;;;15.70;99.90;;;;;;4876641;29;20831;-74
2021/12/30 14:21:35;;;;;;;3.07;1.90;;;15.70;99.90;;;;;;4877413;29;20439;-72
2021/12/30 14:24:20;;;;;;;0.80;0.70;;;15.60;99.90;;;;;;4877501;29;20418;-75
2021/12/30 14:26:49;;;;;;;1.27;0.50;;;15.60;99.90;;;;;;4877411;29;20425;-74
2021/12/30 14:29:17;;;;;;;1.60;0.33;;;15.60;99.90;;;;;;4877692;29;20868;-74
2021/12/30 14:31:53;;;;;;;0.83;0.50;;;15.50;99.90;;;;;;4877152;29;20966;-74
2021/12/30 14:34:48;;;;;;;1.40;0.50;;;15.50;99.90;;;;;;4877063;29;20481;-75
2021/12/30 14:37:22;;;;;;;0.60;0.40;;;15.60;99.90;;;;;;4874922;29;20692;-76
2021/12/30 14:39:55;;;;;;;0.50;0.50;;;15.50;99.90;;;;;;4877551;29;20423;-76
2021/12/30 14:42:26;;;;;;;0.60;0.50;;;15.50;99.90;;;;;;4876373;29;20429;-75
2021/12/30 14:45:08;;;;;;;0.40;0.40;;;15.40;99.90;;;;;;4877374;29;20183;-76
2021/12/30 14:47:39;;;;;;;0.80;0.40;;;15.40;99.90;;;;;;4877665;29;20416;-75
2021/12/30 14:50:06;;;;;;;0.60;0.50;;;15.40;99.90;;;;;;4877582;29;20503;-75
2021/12/30 14:52:37;;;;;;;0.40;0.40;;;15.30;99.90;;;;;;4877365;29;20946;-75
2021/12/30 14:55:30;;;;;;;0.80;0.50;;;15.30;99.90;;;;;;4877202;29;20412;-75
2021/12/30 14:58:01;;;;;;;0.50;0.43;;;15.30;99.90;;;;;;4876289;29;20424;-75
2021/12/30 15:00:29;;;;;;;0.40;0.40;;;15.30;99.90;;;;;;4880771;29;20745;-75
2021/12/30 15:02:56;;;;;;;1.60;0.60;;;15.20;99.90;;;;;;4879847;29;20418;-75
2021/12/30 15:05:23;;;;;;;0.60;0.60;;;15.20;99.90;;;;;;4881187;29;20294;-75
2021/12/30 15:07:49;;;;;;;2.97;0.70;;;15.20;99.90;;;;;;4880879;29;20415;-75
2021/12/30 15:10:16;;;;;;;0.57;0.50;;;15.20;99.90;;;;;;4879841;29;20997;-75
2021/12/30 15:12:45;;;;;;;0.70;0.60;;;15.20;99.90;;;;;;4880506;29;20546;-75
2021/12/30 15:15:14;;;;;;;0.80;0.43;;;15.20;99.90;;;;;;4880767;29;20457;-75
2021/12/30 15:17:41;;;;;;;0.43;0.43;;;15.20;99.90;;;;;;4880744;29;20427;-75
2021/12/30 15:20:09;;;;;;;1.23;0.60;;;15.20;99.90;;;;;;4880855;29;20420;-75
2021/12/30 15:22:34;;;;;;;1.03;0.50;;;15.10;99.90;;;;;;4880503;29;20462;-73
2021/12/30 15:25:01;;;;;;;0.50;0.50;;;15.10;99.90;;;;;;4880526;29;20448;-75
2021/12/30 15:27:26;;;;;;;0.60;0.43;;;15.10;99.90;;;;;;4880625;29;20183;-75
2021/12/30 15:29:52;;;;;;;0.70;0.43;;;15.00;99.90;;;;;;4880367;29;20514;-75
2021/12/30 15:32:21;;;;;;;0.90;0.50;;;15.00;99.90;;;;;;4880165;29;20580;-75
2021/12/30 15:34:50;;;;;;;0.53;0.50;;;15.00;99.90;;;;;;4880328;29;20262;-75
2021/12/30 15:37:16;;;;;;;0.60;0.53;;;15.00;99.90;;;;;;4882580;29;20423;-75
2021/12/30 15:39:42;;;;;;;1.73;0.80;;;14.90;99.90;;;;;;4883467;29;20475;-74
2021/12/30 15:42:07;;;;;;;3.63;3.30;;;14.90;99.90;;;;;;4880218;29;20466;-75
2021/12/30 15:44:33;;;;;;;3.83;3.53;;;14.90;99.90;;;;;;4880205;29;20803;-76
2021/12/30 15:46:58;;;;;;;1.30;1.20;;;14.90;99.90;;;;;;4880254;29;20279;-75
2021/12/30 15:49:24;;;;;;;1.40;1.07;;;14.80;99.90;;;;;;4880285;29;20190;-75
2021/12/30 15:51:50;;;;;;;0.83;0.80;;;14.80;99.90;;;;;;4879888;29;20203;-75
2021/12/30 15:54:17;;;;;;;1.73;0.70;;;14.80;99.90;;;;;;4880056;29;20649;-75
2021/12/30 15:56:43;;;;;;;1.60;0.70;;;14.80;99.90;;;;;;4880092;29;20559;-76
2021/12/30 15:59:10;;;;;;;0.50;0.50;;;14.70;99.90;;;;;;4879233;29;21214;-74
2021/12/30 16:01:36;;;;;;;1.00;0.80;;;14.80;99.90;;;;;;4879952;29;20537;-74
2021/12/30 16:04:02;;;;;;;0.87;0.60;;;14.70;99.90;;;;;;4879482;29;20510;-74
2021/12/30 16:06:27;;;;;;;0.60;0.60;;;14.60;99.90;;;;;;4871866;29;20195;-74
2021/12/30 16:08:53;;;;;;;1.77;0.53;;;14.60;99.90;;;;;;4878120;29;20612;-74
2021/12/30 16:11:18;;;;;;;0.80;0.60;;;14.50;99.90;;;;;;4875499;29;20246;-74
2021/12/30 16:13:44;;;;;;;2.40;0.50;;;14.40;99.90;;;;;;4875898;29;20278;-75
2021/12/30 16:16:10;;;;;;;1.17;0.60;;;14.40;99.90;;;;;;4879020;29;20263;-74
2021/12/30 16:18:36;;;;;;;2.80;0.50;;;14.20;99.90;;;;;;4879856;29;20881;-75
2021/12/30 16:21:03;;;;;;;0.90;0.90;;;14.10;99.90;;;;;;4878996;29;20204;-74
2021/12/30 16:23:30;;;;;;;0.93;0.60;;;14.10;99.90;;;;;;4879421;29;20428;-75
2021/12/30 16:25:56;;;;;;;0.53;0.53;;;13.90;99.90;;;;;;4878338;29;20439;-74
2021/12/30 16:28:22;;;;;;;0.57;0.57;;;13.90;99.90;;;;;;4879672;29;20926;-74
2021/12/30 16:30:48;;;;;;;0.50;0.50;;;13.90;99.90;;;;;;4878842;29;20427;-74
2021/12/30 16:33:14;;;;;;;3.33;0.90;;;13.80;99.90;;;;;;4876433;29;20278;-74
2021/12/30 16:35:40;;;;;;;0.47;0.40;;;13.70;99.90;;;;;;4878413;29;20214;-74
2021/12/30 16:38:05;;;;;;;0.70;0.60;;;13.70;99.90;;;;;;4879040;29;20186;-75
2021/12/30 16:40:32;;;;;;;0.60;0.50;;;13.70;99.90;;;;;;4878076;29;20420;-74
2021/12/30 16:42:58;;;;;;;0.60;0.60;;;13.70;99.90;;;;;;4876320;29;20180;-74
2021/12/30 16:45:25;;;;;;;0.60;0.50;;;13.70;99.90;;;;;;4877441;29;20518;-74
2021/12/30 16:47:52;;;;;;;1.17;0.80;;;13.70;99.90;;;;;;4875625;29;20195;-75
2021/12/30 16:50:17;;;;;;;0.80;0.50;;;13.60;99.90;;;;;;4879110;29;20416;-74
2021/12/30 16:52:43;;;;;;;0.60;0.60;;;13.60;99.90;;;;;;4878685;29;20519;-74
2021/12/30 16:55:10;;;;;;;0.60;0.50;;;13.60;99.90;;;;;;4878661;29;20220;-74
2021/12/30 16:57:38;;;;;;;1.10;0.70;;;13.70;99.90;;;;;;4878845;29;20185;-74
2021/12/30 17:00:09;;;;;;;0.80;0.50;;;13.70;99.90;;;;;;4879066;29;20476;-75
2021/12/30 17:02:36;;;;;;;0.60;0.50;;;13.70;99.90;;;;;;4877121;29;20487;-74
2021/12/30 17:05:06;;;;;;;1.57;0.50;;;13.70;99.90;;;;;;4878353;29;20964;-75
2021/12/30 17:07:32;;;;;;;0.50;0.50;;;13.70;99.90;;;;;;4878741;29;20452;-74
2021/12/30 17:09:57;;;;;;;0.50;0.47;;;13.80;99.90;;;;;;4878473;29;20452;-74
2021/12/30 17:12:23;;;;;;;0.60;0.50;;;13.70;99.90;;;;;;4870940;29;20211;-74
2021/12/30 17:14:48;;;;;;;1.50;0.50;;;13.80;99.90;;;;;;4878477;29;20183;-74
2021/12/30 17:17:14;;;;;;;0.83;0.50;;;13.80;99.90;;;;;;4878530;29;20853;-74
2021/12/30 17:19:39;;;;;;;0.50;0.50;;;13.80;99.90;;;;;;4878156;29;20676;-75
2021/12/30 17:22:06;;;;;;;1.73;0.50;;;13.80;99.90;;;;;;4878265;29;20752;-73
2021/12/30 17:24:33;;;;;;;0.70;0.50;;;13.80;99.90;;;;;;4878375;29;20184;-75